Time;durP1;ratioP1;P1;durP2;ratioP2;P2;SDS_P1;SDS_P2;PMS_P1;PMS_P2;Temp;Humidity;BMP_temperature;BMP_pressure;BME280_temperature;BME280_humidity;BME280_pressure;Samples;Min_cycle;Max_cycle;Signal;HPM_P1;HPM_P2
2021/12/28 00:01:24;;;;;;;43.05;9.50;;;9.80;99.90;;;;;;5054746;28;20679;-61
2021/12/28 00:03:51;;;;;;;31.83;8.75;;;9.80;99.90;;;;;;5054673;28;20254;-61
2021/12/28 00:06:18;;;;;;;39.67;9.25;;;9.90;99.90;;;;;;5054394;28;20171;-61
2021/12/28 00:08:44;;;;;;;32.40;8.55;;;9.90;99.90;;;;;;5054355;28;20183;-61
2021/12/28 00:11:11;;;;;;;40.75;9.68;;;9.90;99.90;;;;;;5054574;28;20625;-61
2021/12/28 00:13:38;;;;;;;41.17;9.00;;;10.00;99.90;;;;;;5054468;28;20258;-61
2021/12/28 00:18:32;;;;;;;42.08;9.18;;;10.00;99.90;;;;;;5054055;28;20195;-61
2021/12/28 00:21:01;;;;;;;37.28;9.18;;;10.00;99.90;;;;;;5054628;28;20186;-61
2021/12/28 00:23:33;;;;;;;37.75;10.23;;;10.10;99.90;;;;;;5053381;28;20171;-61
2021/12/28 00:25:59;;;;;;;44.45;9.38;;;10.10;99.90;;;;;;5054260;28;20617;-61
2021/12/28 00:28:25;;;;;;;32.63;8.18;;;10.20;99.90;;;;;;5054209;28;20219;-61
2021/12/28 00:30:53;;;;;;;38.47;9.07;;;10.10;99.90;;;;;;5054210;28;20176;-62
2021/12/28 00:33:22;;;;;;;39.33;8.52;;;10.20;99.90;;;;;;5054152;28;20165;-61
2021/12/28 00:35:48;;;;;;;31.23;8.68;;;10.10;99.90;;;;;;5054000;28;20223;-61
2021/12/28 00:38:18;;;;;;;40.13;8.75;;;10.10;99.90;;;;;;5053999;28;20241;-61
2021/12/28 00:40:45;;;;;;;31.77;8.40;;;10.10;99.90;;;;;;5054162;28;20195;-61
2021/12/28 00:43:11;;;;;;;36.85;9.02;;;10.10;99.90;;;;;;5053970;28;20232;-61
2021/12/28 00:45:37;;;;;;;28.50;8.00;;;10.10;99.90;;;;;;5053898;28;20254;-61
2021/12/28 00:48:03;;;;;;;36.85;8.80;;;10.10;99.90;;;;;;5053907;28;20206;-61
2021/12/28 00:50:29;;;;;;;36.63;8.85;;;10.20;99.90;;;;;;5053783;28;20217;-61
2021/12/28 00:52:57;;;;;;;34.33;8.90;;;10.20;99.90;;;;;;5053804;28;20172;-61
2021/12/28 00:55:24;;;;;;;33.65;8.02;;;10.20;99.90;;;;;;5053786;28;20174;-61
2021/12/28 00:57:51;;;;;;;35.25;8.50;;;10.20;99.90;;;;;;5053634;28;20298;-61
2021/12/28 01:00:26;;;;;;;35.95;8.98;;;10.20;99.90;;;;;;5053705;28;20644;-61
2021/12/28 01:02:53;;;;;;;40.65;9.82;;;10.20;99.90;;;;;;5053759;28;20170;-61
2021/12/28 01:05:19;;;;;;;36.83;9.10;;;10.30;99.90;;;;;;5053595;28;20510;-61
2021/12/28 01:07:45;;;;;;;37.90;8.32;;;10.30;99.90;;;;;;5053694;28;20175;-61
2021/12/28 01:10:17;;;;;;;37.33;8.75;;;10.20;99.90;;;;;;5052156;28;20182;-61
2021/12/28 01:12:43;;;;;;;33.28;8.27;;;10.20;99.90;;;;;;5053609;28;20160;-61
2021/12/28 01:15:10;;;;;;;33.60;8.52;;;10.10;99.90;;;;;;5053429;28;20194;-61
2021/12/28 01:17:37;;;;;;;38.72;9.15;;;10.20;99.90;;;;;;5053337;28;20202;-61
2021/12/28 01:20:05;;;;;;;37.65;9.25;;;10.20;99.90;;;;;;5053449;28;20229;-61
2021/12/28 01:22:31;;;;;;;41.20;9.25;;;10.20;99.90;;;;;;5051834;28;20699;-61
2021/12/28 01:24:57;;;;;;;32.05;8.15;;;10.30;99.90;;;;;;5053162;28;20167;-61
2021/12/28 01:27:23;;;;;;;34.15;9.50;;;10.30;99.90;;;;;;5036167;28;20183;-62
2021/12/28 01:29:49;;;;;;;42.40;9.40;;;10.30;99.90;;;;;;5053672;28;20175;-62
2021/12/28 01:32:15;;;;;;;43.58;9.18;;;10.30;99.90;;;;;;5053008;28;20541;-61
2021/12/28 01:34:41;;;;;;;42.95;9.15;;;10.30;99.90;;;;;;5055377;28;20179;-61
2021/12/28 01:37:07;;;;;;;34.25;8.55;;;10.40;99.90;;;;;;5057527;28;20606;-61
2021/12/28 01:39:33;;;;;;;30.45;7.57;;;10.40;99.90;;;;;;5056258;28;20532;-61
2021/12/28 01:42:02;;;;;;;43.47;9.38;;;10.40;99.90;;;;;;5057381;28;20163;-61
2021/12/28 01:44:29;;;;;;;35.50;9.27;;;10.40;99.90;;;;;;5057636;28;20183;-61
2021/12/28 01:46:55;;;;;;;35.80;8.15;;;10.40;99.90;;;;;;5057432;28;20620;-61
2021/12/28 01:49:21;;;;;;;26.95;7.38;;;10.40;99.90;;;;;;5057210;28;20287;-61
2021/12/28 01:51:47;;;;;;;40.53;8.93;;;10.40;99.90;;;;;;5057197;28;20629;-61
2021/12/28 01:54:12;;;;;;;44.63;9.18;;;10.40;99.90;;;;;;5057395;28;20167;-61
2021/12/28 01:56:44;;;;;;;32.45;8.00;;;10.50;99.90;;;;;;5057103;28;20178;-61
2021/12/28 01:59:14;;;;;;;31.75;7.88;;;10.50;99.90;;;;;;5057170;28;20267;-61
2021/12/28 02:01:41;;;;;;;28.55;8.00;;;10.40;99.90;;;;;;5057150;28;20199;-61
2021/12/28 02:04:23;;;;;;;28.85;7.43;;;10.40;99.90;;;;;;5055704;28;20664;-61
2021/12/28 02:06:50;;;;;;;35.08;7.97;;;10.40;99.90;;;;;;5056981;28;20164;-61
2021/12/28 02:09:19;;;;;;;33.13;7.40;;;10.40;99.90;;;;;;5056934;28;20601;-61
2021/12/28 02:11:45;;;;;;;28.83;7.15;;;10.40;99.90;;;;;;5039282;28;20262;-61
2021/12/28 02:14:11;;;;;;;24.83;6.78;;;10.30;99.90;;;;;;5056484;28;20184;-61
2021/12/28 02:16:40;;;;;;;33.13;7.20;;;10.20;99.90;;;;;;5056906;28;20195;-61
2021/12/28 02:19:07;;;;;;;31.67;7.82;;;10.20;99.90;;;;;;5056786;28;20531;-61
2021/12/28 02:21:33;;;;;;;26.75;7.50;;;10.20;99.90;;;;;;5056591;28;20171;-61
2021/12/28 02:24:01;;;;;;;30.02;6.78;;;10.30;99.90;;;;;;5056325;28;20171;-61
2021/12/28 02:26:27;;;;;;;29.67;6.80;;;10.20;99.90;;;;;;5056201;28;20574;-61
2021/12/28 02:28:53;;;;;;;25.35;7.10;;;10.30;99.90;;;;;;5056462;28;20183;-61
2021/12/28 02:31:19;;;;;;;32.00;6.97;;;10.30;99.90;;;;;;5055214;28;20213;-61
2021/12/28 02:33:46;;;;;;;26.25;5.95;;;10.30;99.90;;;;;;5056468;28;20175;-61
2021/12/28 02:36:12;;;;;;;24.90;5.70;;;10.30;99.90;;;;;;5056342;28;20210;-61
2021/12/28 02:38:38;;;;;;;21.52;5.38;;;10.30;99.90;;;;;;5056180;28;20235;-61
2021/12/28 02:41:04;;;;;;;19.75;5.47;;;10.20;99.90;;;;;;5056277;28;20629;-61
2021/12/28 02:43:30;;;;;;;19.67;5.55;;;10.30;99.90;;;;;;5056251;28;20190;-61
2021/12/28 02:46:02;;;;;;;22.77;5.15;;;10.20;99.90;;;;;;5055353;28;20182;-61
2021/12/28 02:48:29;;;;;;;18.73;4.82;;;10.20;99.90;;;;;;5056412;28;20190;-61
2021/12/28 02:51:02;;;;;;;17.95;4.63;;;10.20;99.90;;;;;;5055818;28;20699;-61
2021/12/28 02:53:28;;;;;;;18.73;5.32;;;10.30;99.90;;;;;;5056082;28;20557;-61
2021/12/28 02:55:54;;;;;;;22.25;5.90;;;10.30;99.90;;;;;;5056045;28;20171;-61
2021/12/28 02:58:30;;;;;;;15.88;4.63;;;10.30;99.90;;;;;;5055914;28;20655;-61
2021/12/28 03:01:19;;;;;;;21.67;5.00;;;10.20;99.90;;;;;;5055890;28;20568;-61
2021/12/28 03:03:46;;;;;;;14.57;4.50;;;10.20;99.90;;;;;;5055932;28;20171;-61
2021/12/28 03:06:16;;;;;;;15.38;4.30;;;10.30;99.90;;;;;;5055471;28;20168;-61
2021/12/28 03:08:45;;;;;;;19.48;4.88;;;10.30;99.90;;;;;;5055746;28;20182;-61
2021/12/28 03:11:13;;;;;;;13.95;4.68;;;10.30;99.90;;;;;;5055729;28;20214;-61
2021/12/28 03:13:44;;;;;;;14.68;4.20;;;10.30;99.90;;;;;;5055767;28;20167;-61
2021/12/28 03:16:11;;;;;;;12.82;4.53;;;10.30;99.90;;;;;;5055894;28;20229;-61
2021/12/28 03:18:38;;;;;;;12.85;4.07;;;10.40;99.90;;;;;;5055742;28;20199;-61
2021/12/28 03:21:05;;;;;;;15.35;4.63;;;10.30;99.90;;;;;;5055014;28;20187;-61
2021/12/28 03:23:32;;;;;;;14.85;3.85;;;10.20;99.90;;;;;;5055685;28;20179;-61
2021/12/28 03:25:58;;;;;;;11.98;4.40;;;10.30;99.90;;;;;;5055241;28;20180;-61
2021/12/28 03:28:27;;;;;;;13.52;3.88;;;10.40;99.90;;;;;;5055407;28;20514;-61
2021/12/28 03:30:54;;;;;;;14.45;3.90;;;10.40;99.90;;;;;;5055315;28;20174;-61
2021/12/28 03:33:22;;;;;;;13.55;4.00;;;10.30;99.90;;;;;;5055311;28;20194;-61
2021/12/28 03:35:48;;;;;;;14.70;4.18;;;10.40;99.90;;;;;;5055301;28;20176;-61
2021/12/28 03:38:14;;;;;;;15.05;4.80;;;10.40;99.90;;;;;;5055407;28;20199;-61
2021/12/28 03:40:40;;;;;;;15.10;4.18;;;10.30;99.90;;;;;;5054935;28;20581;-61
2021/12/28 03:43:06;;;;;;;16.88;4.28;;;10.30;99.90;;;;;;5055141;28;20172;-61
2021/12/28 03:45:32;;;;;;;16.50;4.45;;;10.30;99.90;;;;;;5054759;28;20629;-61
2021/12/28 03:47:58;;;;;;;15.07;4.38;;;10.30;99.90;;;;;;5054658;28;20183;-61
2021/12/28 03:50:25;;;;;;;12.32;4.15;;;10.30;99.90;;;;;;5054709;28;20554;-61
2021/12/28 03:52:53;;;;;;;12.52;4.20;;;10.40;99.90;;;;;;5054861;28;20190;-61
2021/12/28 03:55:21;;;;;;;11.73;4.22;;;10.30;99.90;;;;;;5054550;28;20172;-61
2021/12/28 03:57:47;;;;;;;13.85;4.38;;;10.30;99.90;;;;;;5054475;28;20207;-61
2021/12/28 04:00:15;;;;;;;12.65;4.28;;;10.30;99.90;;;;;;5054837;28;20258;-61
2021/12/28 04:02:41;;;;;;;15.25;5.13;;;10.30;99.90;;;;;;5054715;28;20660;-61
2021/12/28 04:05:07;;;;;;;15.95;4.78;;;10.30;99.90;;;;;;5054445;28;20695;-61
2021/12/28 04:07:33;;;;;;;12.85;4.97;;;10.40;99.90;;;;;;5054708;28;20191;-61
2021/12/28 04:10:02;;;;;;;14.40;4.80;;;10.30;99.90;;;;;;5054642;28;20570;-61
2021/12/28 04:12:29;;;;;;;12.30;4.40;;;10.40;99.90;;;;;;5053354;28;20190;-61
2021/12/28 04:14:56;;;;;;;13.32;4.82;;;10.20;99.90;;;;;;5054630;28;20249;-61
2021/12/28 04:17:23;;;;;;;11.90;5.05;;;10.30;99.90;;;;;;5054578;28;20199;-61
2021/12/28 04:19:49;;;;;;;13.27;4.53;;;10.20;99.90;;;;;;5054428;28;20167;-61
2021/12/28 04:22:15;;;;;;;17.08;5.28;;;10.10;99.90;;;;;;5054325;28;20182;-61
2021/12/28 04:24:40;;;;;;;14.65;5.07;;;10.20;99.90;;;;;;5054404;28;20178;-61
2021/12/28 04:27:06;;;;;;;11.70;4.30;;;10.20;99.90;;;;;;5054541;28;20179;-61
2021/12/28 04:29:32;;;;;;;13.75;4.88;;;10.20;99.90;;;;;;5054433;28;20175;-61
2021/12/28 04:31:57;;;;;;;13.45;4.43;;;10.30;99.90;;;;;;5054195;28;20217;-61
2021/12/28 04:34:23;;;;;;;13.07;4.82;;;10.30;99.90;;;;;;5054155;28;20172;-61
2021/12/28 04:36:50;;;;;;;15.80;5.13;;;10.30;99.90;;;;;;5054068;28;20179;-61
2021/12/28 04:39:16;;;;;;;13.18;4.43;;;10.40;99.90;;;;;;5054089;28;20214;-61
2021/12/28 04:41:42;;;;;;;12.18;4.65;;;10.40;99.90;;;;;;5054043;28;20171;-61
2021/12/28 04:44:10;;;;;;;17.83;5.10;;;10.40;99.90;;;;;;5053979;28;20176;-61
2021/12/28 04:46:36;;;;;;;11.95;4.05;;;10.40;99.90;;;;;;5053600;28;20190;-61
2021/12/28 04:49:03;;;;;;;10.60;4.18;;;10.30;99.90;;;;;;5053896;28;20693;-61
2021/12/28 04:51:29;;;;;;;15.82;4.55;;;10.30;99.90;;;;;;5053843;28;20272;-61
2021/12/28 04:53:55;;;;;;;14.63;4.20;;;10.40;99.90;;;;;;5053789;28;20229;-61
2021/12/28 04:56:22;;;;;;;12.18;4.38;;;10.40;99.90;;;;;;5053437;28;20649;-61
2021/12/28 04:58:47;;;;;;;11.27;4.35;;;10.30;99.90;;;;;;5053660;28;20199;-61
2021/12/28 05:01:13;;;;;;;11.00;3.88;;;10.30;99.90;;;;;;5053652;28;20221;-61
2021/12/28 05:03:39;;;;;;;12.75;4.05;;;10.30;99.90;;;;;;5053757;28;20179;-60
2021/12/28 05:06:05;;;;;;;13.40;4.68;;;10.30;99.90;;;;;;5053682;28;20175;-62
2021/12/28 05:08:31;;;;;;;15.43;4.07;;;10.30;99.90;;;;;;5053054;28;20175;-61
2021/12/28 05:10:57;;;;;;;12.25;3.70;;;10.30;99.90;;;;;;5053672;28;20556;-61
2021/12/28 05:13:23;;;;;;;12.40;4.32;;;10.20;99.90;;;;;;5053300;28;20233;-62
2021/12/28 05:15:50;;;;;;;14.43;4.15;;;10.20;99.90;;;;;;5053596;28;20274;-61
2021/12/28 05:18:16;;;;;;;12.75;3.92;;;10.20;99.90;;;;;;5053403;28;20210;-61
2021/12/28 05:20:43;;;;;;;10.50;3.90;;;10.30;99.90;;;;;;5053400;28;20187;-61
2021/12/28 05:23:10;;;;;;;12.55;4.00;;;10.30;99.90;;;;;;5053357;28;20183;-62
2021/12/28 05:25:35;;;;;;;8.35;3.63;;;10.30;99.90;;;;;;5053416;28;20258;-61
2021/12/28 05:28:02;;;;;;;11.95;3.88;;;10.20;99.90;;;;;;5053346;28;20262;-61
2021/12/28 05:30:28;;;;;;;12.55;4.00;;;10.20;99.90;;;;;;5053403;28;20175;-61
2021/12/28 05:32:55;;;;;;;8.90;3.88;;;10.10;99.90;;;;;;5052147;28;20190;-61
2021/12/28 05:35:21;;;;;;;8.23;3.50;;;10.20;99.90;;;;;;5053271;28;20179;-61
2021/12/28 05:37:46;;;;;;;11.00;3.95;;;10.30;99.90;;;;;;5053237;28;20203;-61
2021/12/28 05:40:13;;;;;;;9.43;3.88;;;10.30;99.90;;;;;;5053206;28;20187;-61
2021/12/28 05:42:39;;;;;;;8.13;3.42;;;10.30;99.90;;;;;;5052968;28;20175;-61
2021/12/28 05:45:06;;;;;;;9.45;3.58;;;10.30;99.90;;;;;;5052830;28;20633;-61
2021/12/28 05:47:32;;;;;;;11.95;3.60;;;10.20;99.90;;;;;;5052811;28;20180;-62
2021/12/28 05:49:58;;;;;;;10.82;3.78;;;10.20;99.90;;;;;;5053224;28;20268;-62
2021/12/28 05:52:24;;;;;;;11.18;3.50;;;10.30;99.90;;;;;;5053165;28;20264;-61
2021/12/28 05:54:49;;;;;;;10.00;3.55;;;10.30;99.90;;;;;;5053135;28;20182;-61
2021/12/28 05:57:15;;;;;;;9.57;3.50;;;10.30;99.90;;;;;;5035165;28;20211;-62
2021/12/28 05:59:41;;;;;;;6.93;2.90;;;10.40;99.90;;;;;;5053065;28;20205;-61
2021/12/28 06:02:07;;;;;;;14.38;3.70;;;10.40;99.90;;;;;;5052761;28;20199;-62
2021/12/28 06:04:33;;;;;;;12.10;3.38;;;10.40;99.90;;;;;;5053042;28;20206;-62
2021/12/28 06:06:59;;;;;;;10.82;3.30;;;10.40;99.90;;;;;;5053001;28;20644;-61
2021/12/28 06:09:25;;;;;;;8.15;2.88;;;10.30;99.90;;;;;;5052694;28;20641;-62
2021/12/28 06:11:51;;;;;;;7.43;2.97;;;10.30;99.90;;;;;;5052938;28;20197;-62
2021/12/28 06:14:16;;;;;;;9.82;3.45;;;10.30;99.90;;;;;;5052949;28;20207;-61
2021/12/28 06:16:42;;;;;;;7.85;3.03;;;10.30;99.90;;;;;;5053360;28;20191;-61
2021/12/28 06:19:08;;;;;;;6.07;3.03;;;10.30;99.90;;;;;;5052800;28;20195;-61
2021/12/28 06:21:35;;;;;;;8.93;3.38;;;10.30;99.90;;;;;;5056001;28;20243;-61
2021/12/28 06:24:01;;;;;;;8.15;3.47;;;10.30;99.90;;;;;;5056639;28;20261;-61
2021/12/28 06:26:29;;;;;;;6.63;3.63;;;10.30;99.90;;;;;;5056633;28;20525;-61
2021/12/28 06:28:55;;;;;;;10.43;3.97;;;10.30;99.90;;;;;;5056461;28;20215;-61
2021/12/28 06:31:21;;;;;;;5.97;3.72;;;10.30;99.90;;;;;;5055384;28;20257;-61
2021/12/28 06:33:47;;;;;;;7.88;3.55;;;10.40;99.90;;;;;;5056556;28;20175;-61
2021/12/28 06:36:12;;;;;;;10.02;4.28;;;10.40;99.90;;;;;;5055977;28;20175;-61
2021/12/28 06:38:38;;;;;;;8.25;4.13;;;10.30;99.90;;;;;;5056177;28;20277;-61
2021/12/28 06:41:06;;;;;;;7.43;3.50;;;10.40;99.90;;;;;;5054552;28;20181;-61
2021/12/28 06:43:32;;;;;;;8.30;3.72;;;10.30;99.90;;;;;;5054807;28;20184;-61
2021/12/28 06:45:57;;;;;;;5.10;3.10;;;10.30;99.90;;;;;;5054950;28;20176;-61
2021/12/28 06:48:23;;;;;;;8.52;3.35;;;10.30;99.90;;;;;;5054670;28;20656;-61
2021/12/28 06:50:49;;;;;;;9.13;3.55;;;10.30;99.90;;;;;;5054905;28;20639;-61
2021/12/28 06:53:16;;;;;;;6.35;3.55;;;10.30;99.90;;;;;;5055012;28;20172;-61
2021/12/28 06:55:42;;;;;;;5.70;3.65;;;10.30;99.90;;;;;;5054746;28;20180;-61
2021/12/28 06:58:08;;;;;;;8.95;3.42;;;10.30;99.90;;;;;;5053631;28;20264;-61
2021/12/28 07:00:37;;;;;;;9.05;3.65;;;10.30;99.90;;;;;;5054699;28;20210;-62
2021/12/28 07:03:04;;;;;;;5.88;3.25;;;10.30;99.90;;;;;;5056015;28;20265;-62
2021/12/28 07:05:30;;;;;;;4.78;3.50;;;10.40;99.90;;;;;;5055888;28;20175;-61
2021/12/28 07:07:56;;;;;;;9.20;3.78;;;10.30;99.90;;;;;;5054714;28;20187;-61
2021/12/28 07:10:22;;;;;;;7.40;3.85;;;10.30;99.90;;;;;;5055804;28;20180;-61
2021/12/28 07:12:51;;;;;;;7.45;4.20;;;10.30;99.90;;;;;;5055204;28;20261;-61
2021/12/28 07:15:18;;;;;;;6.00;3.47;;;10.50;99.90;;;;;;5053556;28;20191;-61
2021/12/28 07:17:44;;;;;;;6.35;3.72;;;10.40;99.90;;;;;;5053373;28;20187;-61
2021/12/28 07:20:10;;;;;;;6.43;4.05;;;10.40;99.90;;;;;;5054563;28;20517;-61
2021/12/28 07:22:36;;;;;;;7.90;4.32;;;10.40;99.90;;;;;;5055423;28;20171;-61
2021/12/28 07:25:03;;;;;;;5.93;4.30;;;10.40;99.90;;;;;;5055537;28;20172;-61
2021/12/28 07:27:29;;;;;;;4.80;3.83;;;10.50;99.90;;;;;;5055408;28;20247;-61
2021/12/28 07:29:54;;;;;;;6.45;4.40;;;10.40;99.90;;;;;;5055415;28;20318;-61
2021/12/28 07:32:20;;;;;;;6.03;4.40;;;10.40;99.90;;;;;;5054704;28;20171;-61
2021/12/28 07:34:46;;;;;;;6.15;4.57;;;10.40;99.90;;;;;;5054369;28;20178;-61
2021/12/28 07:37:11;;;;;;;5.05;4.55;;;10.40;99.90;;;;;;5055154;28;20174;-61
2021/12/28 07:39:37;;;;;;;5.85;4.50;;;10.50;99.90;;;;;;5055242;28;20203;-61
2021/12/28 07:42:03;;;;;;;6.15;4.55;;;10.50;99.90;;;;;;5055170;28;20182;-62
2021/12/28 07:44:29;;;;;;;8.50;5.15;;;10.40;99.90;;;;;;5055418;28;20179;-62
2021/12/28 07:46:55;;;;;;;6.60;4.38;;;10.50;99.90;;;;;;5055063;28;20187;-61
2021/12/28 07:49:20;;;;;;;6.38;4.38;;;10.40;99.90;;;;;;5054722;28;20258;-61
2021/12/28 07:51:46;;;;;;;7.28;5.00;;;10.40;99.90;;;;;;5054950;28;20576;-62
2021/12/28 07:54:12;;;;;;;8.10;5.57;;;10.50;99.90;;;;;;5054920;28;20195;-61
2021/12/28 07:56:37;;;;;;;5.50;4.97;;;10.50;99.90;;;;;;5054923;28;20254;-62
2021/12/28 07:59:04;;;;;;;4.80;4.40;;;10.50;99.90;;;;;;5054743;28;20195;-61
2021/12/28 08:01:32;;;;;;;6.53;5.22;;;10.40;99.90;;;;;;5054829;28;20177;-62
2021/12/28 08:03:58;;;;;;;6.60;4.93;;;10.40;99.90;;;;;;5054801;28;20190;-61
2021/12/28 08:06:27;;;;;;;7.90;6.22;;;10.40;99.90;;;;;;5054409;28;20172;-61
2021/12/28 08:08:52;;;;;;;18.60;16.80;;;10.50;99.90;;;;;;5054631;28;20195;-61
2021/12/28 08:11:19;;;;;;;9.40;8.48;;;10.50;99.90;;;;;;5054616;28;20210;-62
2021/12/28 08:13:44;;;;;;;10.27;8.77;;;10.50;99.90;;;;;;5054598;28;20170;-61
2021/12/28 08:16:10;;;;;;;12.27;10.48;;;10.50;99.90;;;;;;5054584;28;20210;-62
2021/12/28 08:18:36;;;;;;;10.15;9.15;;;10.50;99.90;;;;;;5054367;28;20195;-61
2021/12/28 08:21:01;;;;;;;11.75;10.65;;;10.60;99.90;;;;;;5054147;28;20318;-61
2021/12/28 08:23:27;;;;;;;11.02;9.18;;;10.60;99.90;;;;;;5053088;28;20197;-62
2021/12/28 08:25:53;;;;;;;8.15;5.75;;;10.60;99.90;;;;;;5054324;28;20181;-61
2021/12/28 08:28:19;;;;;;;8.25;5.53;;;10.60;99.90;;;;;;5054293;28;20185;-61
2021/12/28 08:30:44;;;;;;;6.00;5.40;;;10.70;99.90;;;;;;5054195;28;20522;-61
2021/12/28 08:33:10;;;;;;;6.72;6.00;;;10.60;99.90;;;;;;5053902;28;20549;-62
2021/12/28 08:35:39;;;;;;;8.32;5.10;;;10.60;99.90;;;;;;5054124;28;20172;-62
2021/12/28 08:38:09;;;;;;;5.38;4.03;;;10.60;99.90;;;;;;5053945;28;20202;-61
2021/12/28 08:40:36;;;;;;;4.72;4.22;;;10.60;99.90;;;;;;5053828;28;20163;-61
2021/12/28 08:43:02;;;;;;;4.32;3.72;;;10.70;99.90;;;;;;5053275;28;20584;-61
2021/12/28 08:45:28;;;;;;;4.10;3.55;;;10.70;99.90;;;;;;5053564;28;20179;-61
2021/12/28 08:47:53;;;;;;;3.83;3.53;;;10.60;99.90;;;;;;5053990;28;20532;-62
2021/12/28 08:50:21;;;;;;;5.72;3.83;;;10.60;99.90;;;;;;5053929;28;20202;-62
2021/12/28 08:52:47;;;;;;;4.07;3.40;;;10.70;99.90;;;;;;5054176;28;20182;-61
2021/12/28 08:55:13;;;;;;;4.90;4.25;;;10.80;99.90;;;;;;5053872;28;20195;-62
2021/12/28 08:57:39;;;;;;;7.13;4.25;;;10.80;99.90;;;;;;5053711;28;20268;-62
2021/12/28 09:00:09;;;;;;;5.53;5.03;;;10.80;99.90;;;;;;5053742;28;20624;-62
2021/12/28 09:02:35;;;;;;;6.35;5.07;;;10.80;99.90;;;;;;5053741;28;20163;-61
2021/12/28 09:05:01;;;;;;;5.70;5.10;;;10.80;99.90;;;;;;5053681;28;20178;-62
2021/12/28 09:07:26;;;;;;;6.53;5.60;;;10.80;99.90;;;;;;5053304;28;20171;-62
2021/12/28 09:09:52;;;;;;;8.80;5.18;;;10.80;99.90;;;;;;5053826;28;20176;-62
2021/12/28 09:12:18;;;;;;;5.45;4.75;;;10.90;99.90;;;;;;5053647;28;20179;-61
2021/12/28 09:14:44;;;;;;;6.50;5.18;;;11.00;99.90;;;;;;5053481;28;20180;-62
2021/12/28 09:17:10;;;;;;;7.40;5.28;;;10.90;99.90;;;;;;5053027;28;20210;-62
2021/12/28 09:19:36;;;;;;;6.13;5.00;;;10.90;99.90;;;;;;5053408;28;20171;-62
2021/12/28 09:22:02;;;;;;;5.57;4.00;;;11.00;99.90;;;;;;5053430;28;20229;-62
2021/12/28 09:24:27;;;;;;;7.35;4.05;;;10.90;99.90;;;;;;5053348;28;20180;-62
2021/12/28 09:26:53;;;;;;;9.93;3.90;;;11.10;99.90;;;;;;5053504;28;20623;-62
2021/12/28 09:29:19;;;;;;;7.90;3.47;;;11.00;99.90;;;;;;5053507;28;20655;-62
2021/12/28 09:31:44;;;;;;;4.85;2.85;;;11.10;99.90;;;;;;5053713;28;20522;-61
2021/12/28 09:34:10;;;;;;;6.97;3.03;;;11.00;99.90;;;;;;5053343;28;20725;-62
2021/12/28 09:36:40;;;;;;;8.20;2.80;;;10.90;99.90;;;;;;5053246;28;20601;-62
2021/12/28 09:39:06;;;;;;;6.30;2.20;;;11.00;99.90;;;;;;5052020;28;20537;-62
2021/12/28 09:41:35;;;;;;;6.13;3.15;;;11.00;99.90;;;;;;5053211;28;20233;-62
2021/12/28 09:44:00;;;;;;;7.20;2.90;;;10.90;99.90;;;;;;5053184;28;20254;-62
2021/12/28 09:46:26;;;;;;;10.45;4.18;;;10.80;99.90;;;;;;5053392;28;20179;-62
2021/12/28 09:48:52;;;;;;;8.02;3.30;;;10.90;99.90;;;;;;5053207;28;20237;-61
2021/12/28 09:51:17;;;;;;;7.10;2.88;;;11.00;99.90;;;;;;5053066;28;20176;-62
2021/12/28 09:53:43;;;;;;;7.50;2.95;;;11.00;99.90;;;;;;5053135;28;20175;-62
2021/12/28 09:56:09;;;;;;;6.20;2.90;;;11.00;99.90;;;;;;5055911;28;20182;-62
2021/12/28 09:58:37;;;;;;;7.40;2.60;;;10.90;99.90;;;;;;5056864;28;20253;-62
2021/12/28 10:01:05;;;;;;;6.07;2.80;;;11.10;99.90;;;;;;5056760;28;20206;-62
2021/12/28 10:03:31;;;;;;;6.32;2.92;;;11.10;99.90;;;;;;5057024;28;20182;-62
2021/12/28 10:05:57;;;;;;;7.95;4.05;;;11.00;99.90;;;;;;5056992;28;20176;-62
2021/12/28 10:08:24;;;;;;;6.75;3.33;;;11.00;99.90;;;;;;5056961;28;20175;-62
2021/12/28 10:10:53;;;;;;;7.43;3.80;;;11.10;99.90;;;;;;5056942;28;20171;-62
2021/12/28 10:13:21;;;;;;;4.57;3.28;;;11.10;99.90;;;;;;5056881;28;20224;-62
2021/12/28 10:15:50;;;;;;;4.97;3.20;;;11.10;99.90;;;;;;5056678;28;20183;-62
2021/12/28 10:18:16;;;;;;;7.18;2.88;;;11.10;99.90;;;;;;5056700;28;20199;-62
2021/12/28 10:20:44;;;;;;;3.53;2.60;;;11.10;99.90;;;;;;5056724;28;20262;-62
2021/12/28 10:23:13;;;;;;;5.97;2.63;;;11.10;99.90;;;;;;5056362;28;20621;-62
2021/12/28 10:25:47;;;;;;;5.25;2.45;;;11.00;99.90;;;;;;5056647;28;20167;-62
2021/12/28 10:28:19;;;;;;;6.93;2.50;;;10.90;99.90;;;;;;5056564;28;20167;-60
2021/12/28 10:30:48;;;;;;;8.23;2.75;;;10.90;99.90;;;;;;5055436;28;20520;-60
2021/12/28 10:33:17;;;;;;;12.90;3.45;;;10.80;99.90;;;;;;5056196;28;20225;-63
2021/12/28 10:35:47;;;;;;;22.95;4.93;;;10.70;99.90;;;;;;5056319;28;20179;-63
2021/12/28 10:38:34;;;;;;;16.45;4.70;;;10.70;99.90;;;;;;5056260;28;20253;-63
2021/12/28 10:41:15;;;;;;;19.35;4.80;;;10.70;99.90;;;;;;5056550;28;20243;-62
2021/12/28 10:43:45;;;;;;;21.63;5.47;;;10.70;99.90;;;;;;5055997;28;20254;-62
2021/12/28 10:46:23;;;;;;;22.58;5.75;;;10.50;99.90;;;;;;5056413;28;20179;-63
2021/12/28 10:48:58;;;;;;;20.52;5.60;;;10.60;99.90;;;;;;5056215;28;20182;-62
2021/12/28 10:51:29;;;;;;;24.30;6.90;;;10.60;99.90;;;;;;5055015;28;20155;-62
2021/12/28 10:56:31;;;;;;;30.25;6.93;;;10.60;99.90;;;;;;5056119;28;20246;-63
2021/12/28 10:58:58;;;;;;;26.40;7.50;;;10.60;99.90;;;;;;5056084;28;20274;-62
2021/12/28 11:01:31;;;;;;;29.50;7.20;;;10.70;99.90;;;;;;5055911;28;20176;-60
2021/12/28 11:04:11;;;;;;;34.15;8.43;;;10.70;99.90;;;;;;5055901;28;20162;-62
2021/12/28 11:06:46;;;;;;;25.10;7.55;;;10.80;99.90;;;;;;5055001;28;20159;-62
2021/12/28 11:09:16;;;;;;;31.25;8.45;;;10.70;99.90;;;;;;5055918;28;20174;-63
2021/12/28 11:11:42;;;;;;;28.52;8.18;;;10.60;99.90;;;;;;5055849;28;20161;-62
2021/12/28 11:14:19;;;;;;;33.50;7.82;;;10.60;99.90;;;;;;5055872;28;20172;-60
2021/12/28 11:16:52;;;;;;;31.55;7.97;;;10.60;99.90;;;;;;5055703;28;20198;-63
2021/12/28 11:19:28;;;;;;;29.98;7.63;;;10.50;99.90;;;;;;5055267;28;20195;-62
2021/12/28 11:22:00;;;;;;;31.08;8.48;;;10.60;99.90;;;;;;5055570;28;20182;-63
2021/12/28 11:24:34;;;;;;;31.45;8.60;;;10.60;99.90;;;;;;5055509;28;20205;-62
2021/12/28 11:27:03;;;;;;;28.73;8.73;;;10.60;99.90;;;;;;5055492;28;20174;-63
2021/12/28 11:29:37;;;;;;;32.03;8.90;;;10.60;99.90;;;;;;5055377;28;20194;-63
2021/12/28 11:32:12;;;;;;;35.40;9.52;;;10.70;99.90;;;;;;5055724;28;20163;-62
2021/12/28 11:34:39;;;;;;;26.15;8.23;;;10.80;99.90;;;;;;5055668;28;20151;-62
2021/12/28 11:37:15;;;;;;;33.03;8.73;;;10.90;99.90;;;;;;5054904;28;20686;-62
2021/12/28 11:39:53;;;;;;;26.73;8.15;;;11.00;99.90;;;;;;5055303;28;20517;-63
2021/12/28 11:42:21;;;;;;;29.75;8.98;;;11.10;99.90;;;;;;5055140;28;20167;-62
2021/12/28 11:44:47;;;;;;;32.08;8.25;;;11.00;99.90;;;;;;5054969;28;20187;-62
2021/12/28 11:47:15;;;;;;;35.42;9.50;;;11.00;99.90;;;;;;5054774;28;20529;-62
2021/12/28 11:49:41;;;;;;;32.50;8.18;;;10.90;99.90;;;;;;5055057;28;20172;-63
2021/12/28 11:52:11;;;;;;;27.52;7.82;;;10.90;99.90;;;;;;5054990;28;20202;-61
2021/12/28 11:54:40;;;;;;;30.20;7.82;;;10.90;99.90;;;;;;5054958;28;20254;-62
2021/12/28 11:57:18;;;;;;;27.30;8.95;;;10.70;99.90;;;;;;5053553;28;20262;-62
2021/12/28 12:00:21;;;;;;;31.75;8.10;;;10.80;99.90;;;;;;5054928;28;20203;-62
2021/12/28 12:02:52;;;;;;;25.50;7.03;;;10.80;99.90;;;;;;5032356;28;20645;-62
2021/12/28 12:05:26;;;;;;;26.25;7.10;;;10.80;99.90;;;;;;5051217;28;20183;-62
2021/12/28 12:08:18;;;;;;;26.63;7.50;;;10.60;99.90;;;;;;5054718;28;20195;-62
2021/12/28 12:10:48;;;;;;;30.13;7.30;;;10.50;99.90;;;;;;5053237;28;20244;-62
2021/12/28 12:13:20;;;;;;;22.95;6.68;;;10.60;99.90;;;;;;5053331;28;20179;-62
2021/12/28 12:15:58;;;;;;;25.25;6.93;;;10.60;99.90;;;;;;5054372;28;20195;-62
2021/12/28 12:18:29;;;;;;;22.77;6.07;;;10.40;99.90;;;;;;5054297;28;20766;-62
2021/12/28 12:20:58;;;;;;;20.40;5.97;;;10.30;99.90;;;;;;5054423;28;20250;-62
2021/12/28 12:23:26;;;;;;;21.30;6.50;;;10.40;99.90;;;;;;5054085;28;20176;-62
2021/12/28 12:25:57;;;;;;;23.05;6.55;;;10.60;99.90;;;;;;5054357;28;20167;-62
2021/12/28 12:28:46;;;;;;;23.42;6.43;;;10.60;99.90;;;;;;5054308;28;20617;-62
2021/12/28 12:31:25;;;;;;;21.55;7.07;;;10.60;99.90;;;;;;5054307;28;20246;-62
2021/12/28 12:33:51;;;;;;;29.98;7.13;;;10.60;99.90;;;;;;5054498;28;20152;-61
2021/12/28 12:36:29;;;;;;;21.23;7.18;;;10.60;99.90;;;;;;5054573;28;20236;-62
2021/12/28 12:38:55;;;;;;;22.90;6.80;;;10.60;99.90;;;;;;5054099;28;20198;-61
2021/12/28 12:41:34;;;;;;;24.48;7.43;;;10.70;99.90;;;;;;5053810;28;20180;-61
2021/12/28 12:44:09;;;;;;;34.35;7.60;;;10.60;99.90;;;;;;5054113;28;20174;-61
2021/12/28 12:46:37;;;;;;;18.85;5.90;;;10.40;99.90;;;;;;5053639;28;20623;-62
2021/12/28 12:49:03;;;;;;;15.52;4.53;;;10.20;99.90;;;;;;5053965;28;20179;-61